Sea Voyager — V7QU2 — position and weather

sailwx.info

Track history (hours):
 
Tides and Currents Weather Stations Pressure Air Temp Water Temp Dewpoint Dewpoint Depression Visibility Wind Speed Wind Dir Waves Ship Positions

Sea Voyager

Last reported at 2016-Dec-04 16:26 UTC. Time now 2016-Dec-08 02:11 UTC.
Position N 30°47' W 124°03'.

Length 243 m; draft 14.6 m.

Type: Ship (hazmat cat A). MMSI: 538003439.

Date/timePositionNaut miles runAvg speedWind from/ knotsBaromVisibWave heightAir tempDewpointWater temp
2016-Dec-04 16:26N 30°47' W 124°03'  
2016-Nov-30 19:22N 32°10' W 119°41'5 2.7
2016-Nov-30 17:26N 32°07' W 119°36'3 3.1
2016-Nov-30 16:33N 32°06' W 119°33'4 3.5
2016-Nov-30 15:33N 32°03' W 119°30'5 4.3
2016-Nov-30 14:20N 32°00' W 119°25'4 4.5
2016-Nov-30 13:30N 31°58' W 119°22'8 4.3
2016-Nov-30 11:33N 31°53' W 119°13'4 4.3
2016-Nov-30 10:33N 31°51' W 119°09'4 4.1
2016-Nov-30 09:33N 31°49' W 119°06'4 3.8
2016-Nov-30 08:27N 31°46' W 119°02'1 0.9
2016-Nov-30 07:33N 31°46' W 119°01'2 2.4
2016-Nov-30 06:33N 31°47' W 119°03'2 2.4
2016-Nov-30 05:33N 31°48' W 119°05'3 2.7
2016-Nov-30 04:33N 31°50' W 119°07'3 2.9
2016-Nov-30 03:33N 31°53' W 119°10'3 2.9
2016-Nov-30 02:33N 31°55' W 119°12'3 3.2
2016-Nov-30 01:32N 31°57' W 119°15'3 3.2
2016-Nov-30 00:32N 31°59' W 119°18'  
2016-Nov-26 13:15N 32°21' W 119°30'1 1.0
2016-Nov-26 12:33N 32°21' W 119°31'1 1.0
2016-Nov-26 11:33N 32°20' W 119°32'1 0.9
2016-Nov-26 10:33N 32°20' W 119°33'1 0.9
2016-Nov-26 09:33N 32°20' W 119°34'1 1.0
2016-Nov-26 08:33N 32°20' W 119°35'1 0.9
2016-Nov-26 07:33N 32°20' W 119°36'1 1.0
2016-Nov-26 06:33N 32°20' W 119°37'1 0.9
2016-Nov-26 05:33N 32°20' W 119°38'1 0.9
2016-Nov-26 04:33N 32°19' W 119°39'1 1.1
2016-Nov-26 03:33N 32°19' W 119°41'4 4.1
2016-Nov-26 02:33N 32°17' W 119°45'4 4.1
2016-Nov-26 01:33N 32°14' W 119°48'1 0.5
2016-Nov-25 23:19N 32°15' W 119°49'1 1.8
2016-Nov-25 22:33N 32°15' W 119°47'3 2.7
2016-Nov-25 21:33N 32°15' W 119°44'3 2.6
2016-Nov-25 20:33N 32°15' W 119°41'3 3.1
2016-Nov-25 19:33N 32°15' W 119°38'9 8.9
2016-Nov-25 18:33N 32°15' W 119°27'9 9.0
2016-Nov-25 17:33N 32°15' W 119°16'11 9.0
2016-Nov-25 16:18N 32°17' W 119°03'910.3
2016-Nov-25 15:29N 32°21' W 118°54'1010.5
2016-Nov-25 14:33N 32°26' W 118°44'1110.7
2016-Nov-25 13:33N 32°31' W 118°33'1110.6
2016-Nov-25 12:33N 32°36' W 118°22'1010.2
2016-Nov-25 11:33N 32°44' W 118°15'1110.8
2016-Nov-25 10:33N 32°54' W 118°10'1110.7
2016-Nov-25 09:33N 33°04' W 118°05'1010.1
2016-Nov-25 08:33N 33°14' W 118°04'1111.0
2016-Nov-25 07:34N 33°24' W 118°09'1110.9
2016-Nov-25 06:33N 33°35' W 118°13'9 9.0
2016-Nov-25 05:33N 33°44' W 118°12'1 1.2
2016-Nov-25 04:31N 33°43' W 118°13'0 0.0
2016-Nov-25 03:31N 33°43' W 118°13'0 0.0
2016-Nov-25 02:31N 33°43' W 118°13'0 0.0
2016-Nov-25 01:31N 33°43' W 118°13'0 0.0
2016-Nov-25 00:31N 33°43' W 118°13'0 0.1
2016-Nov-24 23:31N 33°43' W 118°13'0 0.1
2016-Nov-24 22:28N 33°43' W 118°13'0 0.0
2016-Nov-24 21:31N 33°43' W 118°13'0 0.0
2016-Nov-24 20:31N 33°43' W 118°13'0 0.0
2016-Nov-24 19:31N 33°43' W 118°13'0 0.0
2016-Nov-24 18:31N 33°43' W 118°13'0 0.0
2016-Nov-24 17:31N 33°43' W 118°13'0 0.0
2016-Nov-24 16:31N 33°43' W 118°13'  
Track history (hours):
 
Tides and Currents Weather Stations Pressure Air Temp Water Temp Dewpoint Dewpoint Depression Visibility Wind Speed Wind Dir Waves Ship Positions

Sea Voyager

Last reported at 2016-Dec-04 16:26 UTC. Time now 2016-Dec-08 02:11 UTC.
Position N 30°47' W 124°03'.

Length 243 m; draft 14.6 m.

Type: Ship (hazmat cat A). MMSI: 538003439.

Date/timePositionNaut miles runAvg speedWind from/ knotsBaromVisibWave heightAir tempDewpointWater temp
2016-Dec-04 16:26N 30°47' W 124°03'  
2016-Nov-30 19:22N 32°10' W 119°41'5 2.7
2016-Nov-30 17:26N 32°07' W 119°36'3 3.1
2016-Nov-30 16:33N 32°06' W 119°33'4 3.5
2016-Nov-30 15:33N 32°03' W 119°30'5 4.3
2016-Nov-30 14:20N 32°00' W 119°25'4 4.5
2016-Nov-30 13:30N 31°58' W 119°22'8 4.3
2016-Nov-30 11:33N 31°53' W 119°13'4 4.3
2016-Nov-30 10:33N 31°51' W 119°09'4 4.1
2016-Nov-30 09:33N 31°49' W 119°06'4 3.8
2016-Nov-30 08:27N 31°46' W 119°02'1 0.9
2016-Nov-30 07:33N 31°46' W 119°01'2 2.4
2016-Nov-30 06:33N 31°47' W 119°03'2 2.4
2016-Nov-30 05:33N 31°48' W 119°05'3 2.7
2016-Nov-30 04:33N 31°50' W 119°07'3 2.9
2016-Nov-30 03:33N 31°53' W 119°10'3 2.9
2016-Nov-30 02:33N 31°55' W 119°12'3 3.2
2016-Nov-30 01:32N 31°57' W 119°15'3 3.2
2016-Nov-30 00:32N 31°59' W 119°18'  
2016-Nov-26 13:15N 32°21' W 119°30'1 1.0
2016-Nov-26 12:33N 32°21' W 119°31'1 1.0
2016-Nov-26 11:33N 32°20' W 119°32'1 0.9
2016-Nov-26 10:33N 32°20' W 119°33'1 0.9
2016-Nov-26 09:33N 32°20' W 119°34'1 1.0
2016-Nov-26 08:33N 32°20' W 119°35'1 0.9
2016-Nov-26 07:33N 32°20' W 119°36'1 1.0
2016-Nov-26 06:33N 32°20' W 119°37'1 0.9
2016-Nov-26 05:33N 32°20' W 119°38'1 0.9
2016-Nov-26 04:33N 32°19' W 119°39'1 1.1
2016-Nov-26 03:33N 32°19' W 119°41'4 4.1
2016-Nov-26 02:33N 32°17' W 119°45'4 4.1
2016-Nov-26 01:33N 32°14' W 119°48'1 0.5
2016-Nov-25 23:19N 32°15' W 119°49'1 1.8
2016-Nov-25 22:33N 32°15' W 119°47'3 2.7
2016-Nov-25 21:33N 32°15' W 119°44'3 2.6
2016-Nov-25 20:33N 32°15' W 119°41'3 3.1
2016-Nov-25 19:33N 32°15' W 119°38'9 8.9
2016-Nov-25 18:33N 32°15' W 119°27'9 9.0
2016-Nov-25 17:33N 32°15' W 119°16'11 9.0
2016-Nov-25 16:18N 32°17' W 119°03'910.3
2016-Nov-25 15:29N 32°21' W 118°54'1010.5
2016-Nov-25 14:33N 32°26' W 118°44'1110.7
2016-Nov-25 13:33N 32°31' W 118°33'1110.6
2016-Nov-25 12:33N 32°36' W 118°22'1010.2
2016-Nov-25 11:33N 32°44' W 118°15'1110.8
2016-Nov-25 10:33N 32°54' W 118°10'1110.7
2016-Nov-25 09:33N 33°04' W 118°05'1010.1
2016-Nov-25 08:33N 33°14' W 118°04'1111.0
2016-Nov-25 07:34N 33°24' W 118°09'1110.9
2016-Nov-25 06:33N 33°35' W 118°13'9 9.0
2016-Nov-25 05:33N 33°44' W 118°12'1 1.2
2016-Nov-25 04:31N 33°43' W 118°13'0 0.0
2016-Nov-25 03:31N 33°43' W 118°13'0 0.0
2016-Nov-25 02:31N 33°43' W 118°13'0 0.0
2016-Nov-25 01:31N 33°43' W 118°13'0 0.0
2016-Nov-25 00:31N 33°43' W 118°13'0 0.1
2016-Nov-24 23:31N 33°43' W 118°13'0 0.1
2016-Nov-24 22:28N 33°43' W 118°13'0 0.0
2016-Nov-24 21:31N 33°43' W 118°13'0 0.0
2016-Nov-24 20:31N 33°43' W 118°13'0 0.0
2016-Nov-24 19:31N 33°43' W 118°13'0 0.0
2016-Nov-24 18:31N 33°43' W 118°13'0 0.0
2016-Nov-24 17:31N 33°43' W 118°13'0 0.0
2016-Nov-24 16:31N 33°43' W 118°13'  

Dump ship's entire track history